createdAt,value
2019-04-23T00:08:11.475Z,96796.47
2019-04-23T00:23:18.986Z,96788.15
2019-04-23T00:53:32.730Z,96780.20
2019-04-23T01:08:44.130Z,96789.92
2019-04-23T01:23:42.413Z,96785.56
2019-04-23T01:39:11.649Z,96767.12
2019-04-23T01:54:17.712Z,96749.98
2019-04-23T02:09:40.172Z,96742.03
2019-04-23T02:24:43.040Z,96718.77
2019-04-23T03:40:30.312Z,96745.52
2019-04-23T03:55:48.820Z,96738.94
2019-04-23T04:11:04.176Z,96727.42
2019-04-23T04:26:09.143Z,96728.56
2019-04-23T05:11:38.642Z,96703.86
2019-04-23T05:26:39.603Z,96728.91
2019-04-23T05:41:40.103Z,96704.98
2019-04-23T05:57:00.315Z,96722.47
2019-04-23T06:42:11.639Z,96765.08
2019-04-23T06:57:22.651Z,96739.21
2019-04-23T07:12:39.003Z,96722.05
2019-04-23T07:27:45.669Z,96719.60
2019-04-23T07:43:08.735Z,96717.05
2019-04-23T07:58:22.083Z,96757.33
2019-04-23T08:13:35.164Z,96745.89
2019-04-23T08:28:43.601Z,96753.72
2019-04-23T08:43:59.502Z,96772.84
2019-04-23T08:59:07.161Z,96755.91
2019-04-23T09:14:08.749Z,96754.77
2019-04-23T09:29:36.585Z,96767.19
2019-04-23T10:00:25.705Z,96782.05
2019-04-23T10:14:55.105Z,96764.50
2019-04-23T10:29:54.125Z,96768.27
2019-04-23T10:45:27.336Z,96760.02
2019-04-23T11:00:55.639Z,96775.73
2019-04-23T11:16:36.831Z,96794.49
2019-04-23T11:31:23.705Z,96782.05
2019-04-23T11:46:39.750Z,96780.95
2019-04-23T12:01:51.879Z,96766.81
2019-04-23T12:16:53.145Z,96740.70
2019-04-23T12:32:24.165Z,96781.17
2019-04-23T12:47:25.574Z,96770.62
2019-04-23T13:02:36.505Z,96768.27
2019-04-23T13:17:44.508Z,96744.50
2019-04-23T13:32:46.520Z,96765.40
2019-04-23T14:03:26.434Z,96791.25
2019-04-23T14:18:27.044Z,96779.02
2019-04-23T14:33:29.015Z,96802.28
2019-04-23T14:48:27.811Z,96802.77
2019-04-23T15:03:46.636Z,96782.55
2019-04-23T15:19:07.100Z,96775.17
2019-04-23T15:34:09.282Z,96766.89
2019-04-23T15:49:15.536Z,96766.49
2019-04-23T16:03:51.759Z,96745.29
2019-04-23T16:19:56.773Z,96739.99
2019-04-23T16:35:10.684Z,96753.59
2019-04-23T16:50:11.403Z,96728.50
2019-04-23T17:05:18.007Z,96734.28
2019-04-23T17:20:25.504Z,96726.42
2019-04-23T17:36:05.389Z,96724.01
2019-04-23T17:51:02.837Z,96716.91
2019-04-23T18:06:23.391Z,96730.76
2019-04-23T18:21:29.160Z,96727.70
2019-04-23T18:36:22.610Z,96740.09
2019-04-23T18:51:40.679Z,96735.64
2019-04-23T19:06:38.130Z,96736.16
2019-04-23T19:22:17.427Z,96733.96
2019-04-23T19:37:02.696Z,96746.83
2019-04-23T19:52:10.667Z,96732.41
2019-04-23T20:07:33.105Z,96730.23
2019-04-23T20:22:41.797Z,96734.19
2019-04-23T20:52:46.868Z,96751.72
2019-04-23T21:23:11.302Z,96746.70
2019-04-23T21:38:30.502Z,96709.37
2019-04-23T21:53:25.251Z,96725.13
2019-04-23T22:08:43.586Z,96715.80
2019-04-23T22:23:59.550Z,96703.25
2019-04-23T22:38:59.686Z,96674.14
2019-04-23T22:54:05.549Z,96690.28
2019-04-23T23:09:22.569Z,96678.85
2019-04-23T23:24:18.282Z,96661.27
2019-04-23T23:39:28.832Z,96667.52
2019-04-23T23:54:39.335Z,96653.61
